Terminal Aerodrome Forecast
Issued by NWS

Home | Current Version | Previous Version | Text Only | Print | Product List | Glossary On
Versions: 1 2 3 4 5 6 7 8 9 10 11 12 13 14 15 16 17 18 19 20 21 22 23 24 25 26 27 28 29 30
000
FTUS44 KFWD 032059 AAA
TAFFTW
TAF AMD
KFTW 032059Z 0321/0418 35008KT P6SM FEW050 SCT080
     FM040100 VRB04KT P6SM VCSH BKN080
      TEMPO 0401/0404 -SHRA
     FM040400 29004KT P6SM SCT100
     FM041600 33010KT P6SM SKC=

USA.gov is the U.S. government's official web portal to all federal, state and local government web resources and services.